sensor_id;sensor_type;location;lat;lon;timestamp;temperature;humidity
28959;DHT22;16066;0.000;0.000;2023-08-08T05:31:15;20.00;58.40
28959;DHT22;16066;0.000;0.000;2023-08-08T05:33:40;20.00;58.40
28959;DHT22;16066;0.000;0.000;2023-08-08T05:36:06;20.00;58.30
28959;DHT22;16066;0.000;0.000;2023-08-08T05:38:32;20.00;58.40
28959;DHT22;16066;0.000;0.000;2023-08-08T05:40:58;19.90;58.30
28959;DHT22;16066;0.000;0.000;2023-08-08T05:43:24;19.90;58.50
28959;DHT22;16066;0.000;0.000;2023-08-08T05:45:49;19.90;58.40
28959;DHT22;16066;0.000;0.000;2023-08-08T05:48:15;19.80;58.30
28959;DHT22;16066;0.000;0.000;2023-08-08T05:50:41;19.90;58.60
28959;DHT22;16066;0.000;0.000;2023-08-08T05:53:07;19.90;58.70
28959;DHT22;16066;0.000;0.000;2023-08-08T05:55:32;19.90;58.70
28959;DHT22;16066;0.000;0.000;2023-08-08T05:57:58;19.90;58.80
28959;DHT22;16066;0.000;0.000;2023-08-08T06:00:24;19.90;58.70
28959;DHT22;16066;0.000;0.000;2023-08-08T06:02:49;19.90;58.60
28959;DHT22;16066;0.000;0.000;2023-08-08T06:05:17;19.80;58.50
28959;DHT22;16066;0.000;0.000;2023-08-08T06:07:43;19.90;58.70
28959;DHT22;16066;0.000;0.000;2023-08-08T06:10:09;19.90;58.70
28959;DHT22;16066;0.000;0.000;2023-08-08T06:12:34;19.90;58.70
28959;DHT22;16066;0.000;0.000;2023-08-08T06:15:00;19.90;58.80
28959;DHT22;16066;0.000;0.000;2023-08-08T06:17:25;19.80;58.60
28959;DHT22;16066;0.000;0.000;2023-08-08T06:19:51;19.80;58.70
28959;DHT22;16066;0.000;0.000;2023-08-08T06:22:17;19.80;58.70
28959;DHT22;16066;0.000;0.000;2023-08-08T06:24:42;19.90;58.80
28959;DHT22;16066;0.000;0.000;2023-08-08T06:27:08;19.90;58.90
28959;DHT22;16066;0.000;0.000;2023-08-08T06:29:33;19.90;58.90
28959;DHT22;16066;0.000;0.000;2023-08-08T06:31:59;19.90;58.90
28959;DHT22;16066;0.000;0.000;2023-08-08T06:34:24;19.90;58.90
28959;DHT22;16066;0.000;0.000;2023-08-08T06:36:50;19.90;58.80
28959;DHT22;16066;0.000;0.000;2023-08-08T06:39:15;19.90;59.00
28959;DHT22;16066;0.000;0.000;2023-08-08T06:41:41;19.90;58.90
28959;DHT22;16066;0.000;0.000;2023-08-08T06:44:07;19.90;58.90
28959;DHT22;16066;0.000;0.000;2023-08-08T06:46:33;19.90;58.80
28959;DHT22;16066;0.000;0.000;2023-08-08T06:48:58;19.90;58.80
28959;DHT22;16066;0.000;0.000;2023-08-08T06:51:25;19.90;59.10
28959;DHT22;16066;0.000;0.000;2023-08-08T06:53:51;20.00;59.20
28959;DHT22;16066;0.000;0.000;2023-08-08T06:56:16;20.00;59.10
28959;DHT22;16066;0.000;0.000;2023-08-08T06:58:42;20.00;59.00
28959;DHT22;16066;0.000;0.000;2023-08-08T07:01:08;20.00;59.00
28959;DHT22;16066;0.000;0.000;2023-08-08T07:03:35;20.00;59.00
28959;DHT22;16066;0.000;0.000;2023-08-08T07:06:01;19.90;59.10
28959;DHT22;16066;0.000;0.000;2023-08-08T07:08:26;19.90;58.90
28959;DHT22;16066;0.000;0.000;2023-08-08T07:10:52;20.00;59.20
28959;DHT22;16066;0.000;0.000;2023-08-08T07:13:17;20.00;59.00
28959;DHT22;16066;0.000;0.000;2023-08-08T07:15:43;20.00;59.00
28959;DHT22;16066;0.000;0.000;2023-08-08T07:18:08;20.00;58.90
28959;DHT22;16066;0.000;0.000;2023-08-08T07:20:34;20.10;59.10
28959;DHT22;16066;0.000;0.000;2023-08-08T07:22:59;20.00;58.80
28959;DHT22;16066;0.000;0.000;2023-08-08T07:25:26;20.10;59.00
28959;DHT22;16066;0.000;0.000;2023-08-08T07:27:52;20.10;59.20
28959;DHT22;16066;0.000;0.000;2023-08-08T07:30:18;20.10;59.20
28959;DHT22;16066;0.000;0.000;2023-08-08T07:32:43;20.20;59.40
28959;DHT22;16066;0.000;0.000;2023-08-08T07:35:09;20.20;59.20
28959;DHT22;16066;0.000;0.000;2023-08-08T07:37:36;20.30;59.30
28959;DHT22;16066;0.000;0.000;2023-08-08T07:40:02;20.30;59.20
28959;DHT22;16066;0.000;0.000;2023-08-08T07:42:29;20.30;59.20
28959;DHT22;16066;0.000;0.000;2023-08-08T07:44:54;20.40;59.30
28959;DHT22;16066;0.000;0.000;2023-08-08T07:47:20;20.40;58.90
28959;DHT22;16066;0.000;0.000;2023-08-08T07:49:45;20.40;58.70
28959;DHT22;16066;0.000;0.000;2023-08-08T07:52:11;20.40;58.80
28959;DHT22;16066;0.000;0.000;2023-08-08T07:54:37;20.40;58.80
28959;DHT22;16066;0.000;0.000;2023-08-08T07:57:02;20.50;59.40
28959;DHT22;16066;0.000;0.000;2023-08-08T07:59:29;20.50;58.90
28959;DHT22;16066;0.000;0.000;2023-08-08T08:01:54;20.50;58.90
28959;DHT22;16066;0.000;0.000;2023-08-08T08:04:20;20.60;58.80
28959;DHT22;16066;0.000;0.000;2023-08-08T08:06:45;20.60;58.80
28959;DHT22;16066;0.000;0.000;2023-08-08T08:09:11;20.70;58.70
28959;DHT22;16066;0.000;0.000;2023-08-08T08:11:36;20.70;58.90
28959;DHT22;16066;0.000;0.000;2023-08-08T08:14:02;20.70;58.70
28959;DHT22;16066;0.000;0.000;2023-08-08T08:16:28;20.70;58.50
28959;DHT22;16066;0.000;0.000;2023-08-08T08:18:54;20.80;58.60
28959;DHT22;16066;0.000;0.000;2023-08-08T08:21:19;20.80;58.50
28959;DHT22;16066;0.000;0.000;2023-08-08T08:23:46;20.80;58.40
28959;DHT22;16066;0.000;0.000;2023-08-08T08:26:11;20.80;58.50
28959;DHT22;16066;0.000;0.000;2023-08-08T08:28:37;20.80;58.20
28959;DHT22;16066;0.000;0.000;2023-08-08T08:31:06;20.80;58.20
28959;DHT22;16066;0.000;0.000;2023-08-08T08:33:32;20.80;58.30
28959;DHT22;16066;0.000;0.000;2023-08-08T08:35:57;20.80;58.30
28959;DHT22;16066;0.000;0.000;2023-08-08T08:38:23;20.80;58.40
28959;DHT22;16066;0.000;0.000;2023-08-08T08:40:49;20.90;58.50
28959;DHT22;16066;0.000;0.000;2023-08-08T08:43:15;20.90;58.30
28959;DHT22;16066;0.000;0.000;2023-08-08T08:45:43;20.90;58.20
28959;DHT22;16066;0.000;0.000;2023-08-08T08:48:12;20.90;58.10
28959;DHT22;16066;0.000;0.000;2023-08-08T08:50:40;20.90;58.10
28959;DHT22;16066;0.000;0.000;2023-08-08T08:53:06;21.00;58.80
28959;DHT22;16066;0.000;0.000;2023-08-08T08:55:32;21.00;58.00
28959;DHT22;16066;0.000;0.000;2023-08-08T08:57:57;21.10;57.80
28959;DHT22;16066;0.000;0.000;2023-08-08T09:00:23;21.10;57.90
28959;DHT22;16066;0.000;0.000;2023-08-08T09:02:51;21.10;57.80
28959;DHT22;16066;0.000;0.000;2023-08-08T09:05:18;21.10;57.80
28959;DHT22;16066;0.000;0.000;2023-08-08T09:07:47;21.20;58.20
28959;DHT22;16066;0.000;0.000;2023-08-08T09:10:15;21.20;57.90
28959;DHT22;16066;0.000;0.000;2023-08-08T09:12:41;21.20;57.70
28959;DHT22;16066;0.000;0.000;2023-08-08T09:15:07;21.20;57.60
28959;DHT22;16066;0.000;0.000;2023-08-08T09:17:32;21.20;57.50
28959;DHT22;16066;0.000;0.000;2023-08-08T09:19:58;21.20;57.40
28959;DHT22;16066;0.000;0.000;2023-08-08T09:22:24;21.20;57.50
28959;DHT22;16066;0.000;0.000;2023-08-08T09:24:50;21.20;57.60
28959;DHT22;16066;0.000;0.000;2023-08-08T09:27:16;21.20;57.50
28959;DHT22;16066;0.000;0.000;2023-08-08T09:29:42;21.20;57.20
28959;DHT22;16066;0.000;0.000;2023-08-08T09:32:08;21.20;57.00
28959;DHT22;16066;0.000;0.000;2023-08-08T09:34:34;21.20;56.90
28959;DHT22;16066;0.000;0.000;2023-08-08T09:37:00;21.20;56.80
28959;DHT22;16066;0.000;0.000;2023-08-08T09:39:26;21.20;57.00
28959;DHT22;16066;0.000;0.000;2023-08-08T09:41:52;21.20;56.80
28959;DHT22;16066;0.000;0.000;2023-08-08T09:44:17;21.20;56.70
28959;DHT22;16066;0.000;0.000;2023-08-08T09:46:43;21.20;56.60
28959;DHT22;16066;0.000;0.000;2023-08-08T09:49:10;21.20;56.50
28959;DHT22;16066;0.000;0.000;2023-08-08T09:51:36;21.20;56.60
28959;DHT22;16066;0.000;0.000;2023-08-08T09:54:04;21.20;56.60
28959;DHT22;16066;0.000;0.000;2023-08-08T09:56:33;21.20;56.60
28959;DHT22;16066;0.000;0.000;2023-08-08T09:59:00;21.30;56.80
28959;DHT22;16066;0.000;0.000;2023-08-08T10:01:27;21.30;56.70
28959;DHT22;16066;0.000;0.000;2023-08-08T10:03:52;21.30;56.60
28959;DHT22;16066;0.000;0.000;2023-08-08T10:06:18;21.30;56.90
28959;DHT22;16066;0.000;0.000;2023-08-08T10:08:45;21.30;56.80
28959;DHT22;16066;0.000;0.000;2023-08-08T10:11:12;21.40;57.00
28959;DHT22;16066;0.000;0.000;2023-08-08T10:13:46;21.40;56.90
28959;DHT22;16066;0.000;0.000;2023-08-08T10:16:12;21.40;57.00
28959;DHT22;16066;0.000;0.000;2023-08-08T10:18:40;21.40;56.90
28959;DHT22;16066;0.000;0.000;2023-08-08T10:21:06;21.50;56.90
28959;DHT22;16066;0.000;0.000;2023-08-08T10:23:38;21.50;56.70
28959;DHT22;16066;0.000;0.000;2023-08-08T10:26:17;21.50;56.50
28959;DHT22;16066;0.000;0.000;2023-08-08T10:28:53;21.50;56.50
28959;DHT22;16066;0.000;0.000;2023-08-08T10:31:20;21.50;56.40
28959;DHT22;16066;0.000;0.000;2023-08-08T10:33:47;21.50;56.30
28959;DHT22;16066;0.000;0.000;2023-08-08T10:36:12;21.60;56.80
28959;DHT22;16066;0.000;0.000;2023-08-08T10:38:46;21.60;56.20
28959;DHT22;16066;0.000;0.000;2023-08-08T10:41:20;21.60;56.20
28959;DHT22;16066;0.000;0.000;2023-08-08T10:43:50;21.60;56.10
28959;DHT22;16066;0.000;0.000;2023-08-08T10:46:39;21.50;56.10
28959;DHT22;16066;0.000;0.000;2023-08-08T10:49:05;21.50;56.00
28959;DHT22;16066;0.000;0.000;2023-08-08T10:51:39;21.50;56.20
28959;DHT22;16066;0.000;0.000;2023-08-08T10:54:15;21.60;56.30
28959;DHT22;16066;0.000;0.000;2023-08-08T10:56:51;21.50;56.10
28959;DHT22;16066;0.000;0.000;2023-08-08T10:59:22;21.50;56.20
28959;DHT22;16066;0.000;0.000;2023-08-08T11:01:50;21.60;56.10
28959;DHT22;16066;0.000;0.000;2023-08-08T11:04:19;21.60;56.10
28959;DHT22;16066;0.000;0.000;2023-08-08T11:06:45;21.50;56.00
28959;DHT22;16066;0.000;0.000;2023-08-08T11:09:13;21.50;56.20
28959;DHT22;16066;0.000;0.000;2023-08-08T11:11:40;21.50;56.30
28959;DHT22;16066;0.000;0.000;2023-08-08T11:14:17;21.50;56.40
28959;DHT22;16066;0.000;0.000;2023-08-08T11:16:44;21.50;56.20
28959;DHT22;16066;0.000;0.000;2023-08-08T11:19:11;21.50;57.00
28959;DHT22;16066;0.000;0.000;2023-08-08T11:21:43;21.50;56.50
28959;DHT22;16066;0.000;0.000;2023-08-08T11:24:09;21.50;56.40
28959;DHT22;16066;0.000;0.000;2023-08-08T11:26:36;21.40;56.50
28959;DHT22;16066;0.000;0.000;2023-08-08T11:29:04;21.40;56.40
28959;DHT22;16066;0.000;0.000;2023-08-08T11:31:36;21.40;56.60
28959;DHT22;16066;0.000;0.000;2023-08-08T11:34:02;21.40;56.40
28959;DHT22;16066;0.000;0.000;2023-08-08T11:36:32;21.40;56.40
28959;DHT22;16066;0.000;0.000;2023-08-08T11:39:00;21.40;56.50
28959;DHT22;16066;0.000;0.000;2023-08-08T11:41:26;21.30;56.40
28959;DHT22;16066;0.000;0.000;2023-08-08T11:43:52;21.40;56.60
28959;DHT22;16066;0.000;0.000;2023-08-08T11:46:22;21.40;56.70
28959;DHT22;16066;0.000;0.000;2023-08-08T11:48:48;21.40;57.20
28959;DHT22;16066;0.000;0.000;2023-08-08T11:51:15;21.50;56.70
28959;DHT22;16066;0.000;0.000;2023-08-08T11:53:51;21.50;56.50
28959;DHT22;16066;0.000;0.000;2023-08-08T11:56:21;21.50;56.50
28959;DHT22;16066;0.000;0.000;2023-08-08T11:58:51;21.50;56.50
28959;DHT22;16066;0.000;0.000;2023-08-08T12:01:24;21.50;56.50
28959;DHT22;16066;0.000;0.000;2023-08-08T12:03:50;21.50;56.60
28959;DHT22;16066;0.000;0.000;2023-08-08T12:06:16;21.50;56.60
28959;DHT22;16066;0.000;0.000;2023-08-08T12:08:42;21.50;57.40
28959;DHT22;16066;0.000;0.000;2023-08-08T12:11:09;21.50;56.70
28959;DHT22;16066;0.000;0.000;2023-08-08T12:13:37;21.50;56.80
28959;DHT22;16066;0.000;0.000;2023-08-08T12:16:08;21.50;56.70
28959;DHT22;16066;0.000;0.000;2023-08-08T12:18:35;21.50;56.60
28959;DHT22;16066;0.000;0.000;2023-08-08T12:21:01;21.50;56.60
28959;DHT22;16066;0.000;0.000;2023-08-08T12:23:27;21.50;56.60
28959;DHT22;16066;0.000;0.000;2023-08-08T12:25:53;21.50;56.60
28959;DHT22;16066;0.000;0.000;2023-08-08T12:28:19;21.50;56.60
28959;DHT22;16066;0.000;0.000;2023-08-08T12:30:44;21.50;56.50
28959;DHT22;16066;0.000;0.000;2023-08-08T12:33:10;21.50;56.60
28959;DHT22;16066;0.000;0.000;2023-08-08T12:35:35;21.50;56.40
28959;DHT22;16066;0.000;0.000;2023-08-08T12:38:01;21.50;56.40
28959;DHT22;16066;0.000;0.000;2023-08-08T12:40:28;21.50;56.30
28959;DHT22;16066;0.000;0.000;2023-08-08T12:42:54;21.50;56.50
28959;DHT22;16066;0.000;0.000;2023-08-08T12:45:19;21.50;56.40
28959;DHT22;16066;0.000;0.000;2023-08-08T12:47:45;21.50;56.40
28959;DHT22;16066;0.000;0.000;2023-08-08T12:50:10;21.50;56.30
28959;DHT22;16066;0.000;0.000;2023-08-08T12:52:36;21.50;56.30
28959;DHT22;16066;0.000;0.000;2023-08-08T12:55:03;21.50;56.30
28959;DHT22;16066;0.000;0.000;2023-08-08T12:57:29;21.50;56.40
28959;DHT22;16066;0.000;0.000;2023-08-08T12:59:55;21.50;56.10
28959;DHT22;16066;0.000;0.000;2023-08-08T13:02:20;21.50;55.90
28959;DHT22;16066;0.000;0.000;2023-08-08T13:04:46;21.50;55.80
28959;DHT22;16066;0.000;0.000;2023-08-08T13:07:11;21.50;56.00
28959;DHT22;16066;0.000;0.000;2023-08-08T13:09:37;21.60;55.90
28959;DHT22;16066;0.000;0.000;2023-08-08T13:12:03;21.70;56.00
28959;DHT22;16066;0.000;0.000;2023-08-08T13:14:29;21.70;56.00
28959;DHT22;16066;0.000;0.000;2023-08-08T13:16:54;21.80;55.70
28959;DHT22;16066;0.000;0.000;2023-08-08T13:19:20;21.90;55.60
28959;DHT22;16066;0.000;0.000;2023-08-08T13:21:50;21.90;55.70
28959;DHT22;16066;0.000;0.000;2023-08-08T13:24:16;22.00;55.60
28959;DHT22;16066;0.000;0.000;2023-08-08T13:26:42;22.00;55.40
28959;DHT22;16066;0.000;0.000;2023-08-08T13:29:08;22.10;55.10
28959;DHT22;16066;0.000;0.000;2023-08-08T13:31:34;22.10;54.70
28959;DHT22;16066;0.000;0.000;2023-08-08T13:33:59;22.10;54.50
28959;DHT22;16066;0.000;0.000;2023-08-08T13:36:25;22.10;54.60
28959;DHT22;16066;0.000;0.000;2023-08-08T13:38:50;22.10;54.60
28959;DHT22;16066;0.000;0.000;2023-08-08T13:41:16;22.10;54.70
28959;DHT22;16066;0.000;0.000;2023-08-08T13:43:41;22.10;54.70
28959;DHT22;16066;0.000;0.000;2023-08-08T13:46:07;22.10;54.80
28959;DHT22;16066;0.000;0.000;2023-08-08T13:48:35;22.10;54.90
28959;DHT22;16066;0.000;0.000;2023-08-08T13:51:01;22.10;55.20
28959;DHT22;16066;0.000;0.000;2023-08-08T13:53:27;22.10;55.40
28959;DHT22;16066;0.000;0.000;2023-08-08T13:55:53;22.20;55.70
28959;DHT22;16066;0.000;0.000;2023-08-08T13:58:19;22.20;55.60
28959;DHT22;16066;0.000;0.000;2023-08-08T14:00:50;22.20;55.60
28959;DHT22;16066;0.000;0.000;2023-08-08T14:03:15;22.30;55.80
28959;DHT22;16066;0.000;0.000;2023-08-08T14:05:41;22.30;55.70
28959;DHT22;16066;0.000;0.000;2023-08-08T14:08:08;22.20;55.50
28959;DHT22;16066;0.000;0.000;2023-08-08T14:10:34;22.20;55.40
28959;DHT22;16066;0.000;0.000;2023-08-08T14:13:00;22.20;55.50
28959;DHT22;16066;0.000;0.000;2023-08-08T14:15:26;22.20;55.50
28959;DHT22;16066;0.000;0.000;2023-08-08T14:17:51;22.20;55.70
28959;DHT22;16066;0.000;0.000;2023-08-08T14:20:17;22.10;55.50
28959;DHT22;16066;0.000;0.000;2023-08-08T14:22:45;22.20;55.00
28959;DHT22;16066;0.000;0.000;2023-08-08T14:25:12;22.20;55.30
28959;DHT22;16066;0.000;0.000;2023-08-08T14:27:37;22.20;55.50
28959;DHT22;16066;0.000;0.000;2023-08-08T14:30:03;22.20;55.40
28959;DHT22;16066;0.000;0.000;2023-08-08T14:32:29;22.30;55.60
28959;DHT22;16066;0.000;0.000;2023-08-08T14:34:55;22.30;55.50
28959;DHT22;16066;0.000;0.000;2023-08-08T14:37:20;22.30;55.60
28959;DHT22;16066;0.000;0.000;2023-08-08T14:39:46;22.30;55.40
28959;DHT22;16066;0.000;0.000;2023-08-08T14:42:12;22.30;55.40
28959;DHT22;16066;0.000;0.000;2023-08-08T14:44:38;22.30;55.00
28959;DHT22;16066;0.000;0.000;2023-08-08T14:47:03;22.30;55.00
28959;DHT22;16066;0.000;0.000;2023-08-08T14:49:29;22.30;55.10
28959;DHT22;16066;0.000;0.000;2023-08-08T14:51:54;22.30;55.20
28959;DHT22;16066;0.000;0.000;2023-08-08T14:54:20;22.30;55.10
28959;DHT22;16066;0.000;0.000;2023-08-08T14:56:46;22.40;54.90
28959;DHT22;16066;0.000;0.000;2023-08-08T14:59:11;22.40;54.70
28959;DHT22;16066;0.000;0.000;2023-08-08T15:01:37;22.30;54.60
28959;DHT22;16066;0.000;0.000;2023-08-08T15:04:02;22.30;54.40
28959;DHT22;16066;0.000;0.000;2023-08-08T15:06:28;22.30;54.80
28959;DHT22;16066;0.000;0.000;2023-08-08T15:08:54;22.30;55.30
28959;DHT22;16066;0.000;0.000;2023-08-08T15:11:19;22.30;54.50
28959;DHT22;16066;0.000;0.000;2023-08-08T15:13:45;22.40;55.20
28959;DHT22;16066;0.000;0.000;2023-08-08T15:16:10;22.50;55.30
28959;DHT22;16066;0.000;0.000;2023-08-08T15:18:36;22.50;55.00
28959;DHT22;16066;0.000;0.000;2023-08-08T15:21:01;22.50;55.00
28959;DHT22;16066;0.000;0.000;2023-08-08T15:23:27;22.50;54.70
28959;DHT22;16066;0.000;0.000;2023-08-08T15:25:53;22.50;54.60
28959;DHT22;16066;0.000;0.000;2023-08-08T15:28:20;22.50;54.70
28959;DHT22;16066;0.000;0.000;2023-08-08T15:30:46;22.50;55.20
28959;DHT22;16066;0.000;0.000;2023-08-08T15:33:11;22.40;55.00
28959;DHT22;16066;0.000;0.000;2023-08-08T15:35:37;22.40;54.80
28959;DHT22;16066;0.000;0.000;2023-08-08T15:38:02;22.40;55.20
28959;DHT22;16066;0.000;0.000;2023-08-08T15:40:29;22.40;55.50
28959;DHT22;16066;0.000;0.000;2023-08-08T15:42:55;22.50;55.60
28959;DHT22;16066;0.000;0.000;2023-08-08T15:45:20;22.50;55.50
28959;DHT22;16066;0.000;0.000;2023-08-08T15:47:46;22.50;55.40
28959;DHT22;16066;0.000;0.000;2023-08-08T15:50:11;22.50;55.50
28959;DHT22;16066;0.000;0.000;2023-08-08T15:52:37;22.60;55.60
28959;DHT22;16066;0.000;0.000;2023-08-08T15:55:03;22.60;55.60
28959;DHT22;16066;0.000;0.000;2023-08-08T15:57:30;22.60;55.60
28959;DHT22;16066;0.000;0.000;2023-08-08T15:59:56;22.60;55.70
28959;DHT22;16066;0.000;0.000;2023-08-08T16:02:22;22.60;55.60
28959;DHT22;16066;0.000;0.000;2023-08-08T16:04:47;22.50;55.50
28959;DHT22;16066;0.000;0.000;2023-08-08T16:07:14;22.60;55.60
28959;DHT22;16066;0.000;0.000;2023-08-08T16:09:44;22.50;55.60
28959;DHT22;16066;0.000;0.000;2023-08-08T16:12:09;22.50;55.50
28959;DHT22;16066;0.000;0.000;2023-08-08T16:14:35;22.50;55.60
28959;DHT22;16066;0.000;0.000;2023-08-08T16:17:01;22.50;55.60
28959;DHT22;16066;0.000;0.000;2023-08-08T16:19:28;22.50;55.40
28959;DHT22;16066;0.000;0.000;2023-08-08T16:21:54;22.50;55.30
28959;DHT22;16066;0.000;0.000;2023-08-08T16:24:19;22.50;55.40
28959;DHT22;16066;0.000;0.000;2023-08-08T16:26:45;22.50;55.30
28959;DHT22;16066;0.000;0.000;2023-08-08T16:29:10;22.40;55.40
28959;DHT22;16066;0.000;0.000;2023-08-08T16:31:37;22.40;55.20
28959;DHT22;16066;0.000;0.000;2023-08-08T16:34:05;22.40;55.10
28959;DHT22;16066;0.000;0.000;2023-08-08T16:36:31;22.40;54.50
28959;DHT22;16066;0.000;0.000;2023-08-08T16:38:57;22.30;53.90
28959;DHT22;16066;0.000;0.000;2023-08-08T16:41:22;22.30;54.30
28959;DHT22;16066;0.000;0.000;2023-08-08T16:44:02;22.30;53.90
28959;DHT22;16066;0.000;0.000;2023-08-08T16:46:28;22.30;53.90
28959;DHT22;16066;0.000;0.000;2023-08-08T16:48:54;22.30;53.70
28959;DHT22;16066;0.000;0.000;2023-08-08T16:51:19;22.30;54.90
28959;DHT22;16066;0.000;0.000;2023-08-08T16:53:45;22.30;54.20
28959;DHT22;16066;0.000;0.000;2023-08-08T16:56:11;22.30;54.40
28959;DHT22;16066;0.000;0.000;2023-08-08T16:58:37;22.30;54.30
28959;DHT22;16066;0.000;0.000;2023-08-08T17:01:04;22.30;54.00
28959;DHT22;16066;0.000;0.000;2023-08-08T17:03:30;22.30;53.80
28959;DHT22;16066;0.000;0.000;2023-08-08T17:05:55;22.30;53.90
28959;DHT22;16066;0.000;0.000;2023-08-08T17:08:21;22.30;53.80
28959;DHT22;16066;0.000;0.000;2023-08-08T17:10:46;22.30;53.60
28959;DHT22;16066;0.000;0.000;2023-08-08T17:13:12;22.30;53.80
28959;DHT22;16066;0.000;0.000;2023-08-08T17:15:38;22.30;53.60
28959;DHT22;16066;0.000;0.000;2023-08-08T17:18:04;22.30;53.90
28959;DHT22;16066;0.000;0.000;2023-08-08T17:20:29;22.30;53.60
28959;DHT22;16066;0.000;0.000;2023-08-08T17:22:55;22.20;53.80
28959;DHT22;16066;0.000;0.000;2023-08-08T17:25:20;22.20;53.30
28959;DHT22;16066;0.000;0.000;2023-08-08T17:27:47;22.20;53.50
28959;DHT22;16066;0.000;0.000;2023-08-08T17:30:12;22.20;53.40
28959;DHT22;16066;0.000;0.000;2023-08-08T17:32:38;22.20;53.50
28959;DHT22;16066;0.000;0.000;2023-08-08T17:35:04;22.10;53.40
28959;DHT22;16066;0.000;0.000;2023-08-08T17:37:29;22.10;53.30
28959;DHT22;16066;0.000;0.000;2023-08-08T17:39:55;22.10;53.30
28959;DHT22;16066;0.000;0.000;2023-08-08T17:42:21;22.10;53.90
28959;DHT22;16066;0.000;0.000;2023-08-08T17:44:47;22.10;54.10
28959;DHT22;16066;0.000;0.000;2023-08-08T17:47:12;22.10;54.00
28959;DHT22;16066;0.000;0.000;2023-08-08T17:49:39;22.00;54.10
28959;DHT22;16066;0.000;0.000;2023-08-08T17:52:05;22.00;54.50
28959;DHT22;16066;0.000;0.000;2023-08-08T17:54:31;22.00;54.50
28959;DHT22;16066;0.000;0.000;2023-08-08T17:56:56;22.00;54.60
28959;DHT22;16066;0.000;0.000;2023-08-08T17:59:22;22.00;54.70
28959;DHT22;16066;0.000;0.000;2023-08-08T18:01:47;22.00;54.90
28959;DHT22;16066;0.000;0.000;2023-08-08T18:04:13;22.00;54.80
28959;DHT22;16066;0.000;0.000;2023-08-08T18:06:39;22.00;54.90
28959;DHT22;16066;0.000;0.000;2023-08-08T18:09:05;22.00;54.90
28959;DHT22;16066;0.000;0.000;2023-08-08T18:11:30;22.00;54.90
28959;DHT22;16066;0.000;0.000;2023-08-08T18:14:03;22.00;55.20
28959;DHT22;16066;0.000;0.000;2023-08-08T18:16:29;22.00;55.20
28959;DHT22;16066;0.000;0.000;2023-08-08T18:18:54;22.00;55.20
28959;DHT22;16066;0.000;0.000;2023-08-08T18:21:20;22.00;55.20
28959;DHT22;16066;0.000;0.000;2023-08-08T18:23:46;22.00;55.20
28959;DHT22;16066;0.000;0.000;2023-08-08T18:26:11;22.00;55.10
28959;DHT22;16066;0.000;0.000;2023-08-08T18:28:42;22.00;55.10
28959;DHT22;16066;0.000;0.000;2023-08-08T18:31:08;22.00;55.20
28959;DHT22;16066;0.000;0.000;2023-08-08T18:33:33;21.90;55.10
28959;DHT22;16066;0.000;0.000;2023-08-08T18:35:59;21.90;55.10
28959;DHT22;16066;0.000;0.000;2023-08-08T18:38:29;21.90;55.30
28959;DHT22;16066;0.000;0.000;2023-08-08T18:40:54;21.90;55.90
28959;DHT22;16066;0.000;0.000;2023-08-08T18:43:20;21.90;55.40
28959;DHT22;16066;0.000;0.000;2023-08-08T18:45:45;21.90;55.50
28959;DHT22;16066;0.000;0.000;2023-08-08T18:48:11;21.90;55.40
28959;DHT22;16066;0.000;0.000;2023-08-08T18:50:36;21.90;55.40
28959;DHT22;16066;0.000;0.000;2023-08-08T18:53:02;21.90;55.50
28959;DHT22;16066;0.000;0.000;2023-08-08T18:55:28;21.90;55.50
28959;DHT22;16066;0.000;0.000;2023-08-08T18:57:53;21.90;55.50
28959;DHT22;16066;0.000;0.000;2023-08-08T19:00:19;21.90;55.80
28959;DHT22;16066;0.000;0.000;2023-08-08T19:02:44;21.90;55.70
28959;DHT22;16066;0.000;0.000;2023-08-08T19:05:10;21.90;55.20
28959;DHT22;16066;0.000;0.000;2023-08-08T19:07:35;21.90;55.30
28959;DHT22;16066;0.000;0.000;2023-08-08T19:10:01;21.90;55.40
28959;DHT22;16066;0.000;0.000;2023-08-08T19:12:26;21.90;55.40
28959;DHT22;16066;0.000;0.000;2023-08-08T19:14:52;21.90;55.20
28959;DHT22;16066;0.000;0.000;2023-08-08T19:17:17;21.90;55.80
28959;DHT22;16066;0.000;0.000;2023-08-08T19:19:43;21.80;55.10
28959;DHT22;16066;0.000;0.000;2023-08-08T19:22:08;21.80;55.10
28959;DHT22;16066;0.000;0.000;2023-08-08T19:24:34;21.80;55.20
28959;DHT22;16066;0.000;0.000;2023-08-08T19:26:59;21.80;55.40
28959;DHT22;16066;0.000;0.000;2023-08-08T19:29:25;21.80;55.20
28959;DHT22;16066;0.000;0.000;2023-08-08T19:31:50;21.80;55.20
28959;DHT22;16066;0.000;0.000;2023-08-08T19:34:16;21.80;55.30
28959;DHT22;16066;0.000;0.000;2023-08-08T19:36:42;21.80;55.10
28959;DHT22;16066;0.000;0.000;2023-08-08T19:39:07;21.80;55.30
28959;DHT22;16066;0.000;0.000;2023-08-08T19:41:33;21.80;55.30
28959;DHT22;16066;0.000;0.000;2023-08-08T19:43:58;21.70;55.20
28959;DHT22;16066;0.000;0.000;2023-08-08T19:46:24;21.70;55.30
28959;DHT22;16066;0.000;0.000;2023-08-08T19:48:49;21.70;55.40
28959;DHT22;16066;0.000;0.000;2023-08-08T19:51:15;21.70;55.50
28959;DHT22;16066;0.000;0.000;2023-08-08T19:53:41;21.70;55.50
28959;DHT22;16066;0.000;0.000;2023-08-08T19:56:07;21.70;55.80
28959;DHT22;16066;0.000;0.000;2023-08-08T19:58:33;21.70;55.90
28959;DHT22;16066;0.000;0.000;2023-08-08T20:00:59;21.70;56.10
28959;DHT22;16066;0.000;0.000;2023-08-08T20:03:25;21.70;56.20
28959;DHT22;16066;0.000;0.000;2023-08-08T20:05:50;21.70;56.30
28959;DHT22;16066;0.000;0.000;2023-08-08T20:08:16;21.70;56.40
28959;DHT22;16066;0.000;0.000;2023-08-08T20:10:41;21.70;56.40
28959;DHT22;16066;0.000;0.000;2023-08-08T20:13:07;21.70;56.60
28959;DHT22;16066;0.000;0.000;2023-08-08T20:15:35;21.70;56.60
28959;DHT22;16066;0.000;0.000;2023-08-08T20:18:01;21.70;56.60
28959;DHT22;16066;0.000;0.000;2023-08-08T20:20:26;21.70;56.70
28959;DHT22;16066;0.000;0.000;2023-08-08T20:22:52;21.70;56.70
28959;DHT22;16066;0.000;0.000;2023-08-08T20:25:17;21.60;56.70
28959;DHT22;16066;0.000;0.000;2023-08-08T20:27:43;21.60;56.80
28959;DHT22;16066;0.000;0.000;2023-08-08T20:30:09;21.50;57.50
28959;DHT22;16066;0.000;0.000;2023-08-08T20:32:35;21.50;57.20
28959;DHT22;16066;0.000;0.000;2023-08-08T20:35:01;21.50;57.30
28959;DHT22;16066;0.000;0.000;2023-08-08T20:37:27;21.40;57.30
28959;DHT22;16066;0.000;0.000;2023-08-08T20:39:52;21.40;57.40
28959;DHT22;16066;0.000;0.000;2023-08-08T20:42:18;21.40;57.50
28959;DHT22;16066;0.000;0.000;2023-08-08T20:44:43;21.30;57.60
28959;DHT22;16066;0.000;0.000;2023-08-08T20:47:09;21.30;57.80
28959;DHT22;16066;0.000;0.000;2023-08-08T20:49:34;21.20;57.70
28959;DHT22;16066;0.000;0.000;2023-08-08T20:52:00;21.20;57.90
28959;DHT22;16066;0.000;0.000;2023-08-08T20:54:26;21.20;58.00
28959;DHT22;16066;0.000;0.000;2023-08-08T20:56:58;21.20;58.10
28959;DHT22;16066;0.000;0.000;2023-08-08T20:59:27;21.10;58.20
28959;DHT22;16066;0.000;0.000;2023-08-08T21:01:53;21.10;58.30
28959;DHT22;16066;0.000;0.000;2023-08-08T21:04:20;21.10;58.40
28959;DHT22;16066;0.000;0.000;2023-08-08T21:06:45;21.00;58.40
28959;DHT22;16066;0.000;0.000;2023-08-08T21:09:11;21.00;58.50